sensor_id;sensor_type;location;lat;lon;timestamp;P1;durP1;ratioP1;P2;durP2;ratioP2
40322;SDS011;26030;51.164;17.100;2023-01-09T00:00:48;8.30;;;7.50;;
40322;SDS011;26030;51.164;17.100;2023-01-09T00:05:58;8.80;;;7.90;;
40322;SDS011;26030;51.164;17.100;2023-01-09T00:11:03;8.90;;;8.00;;
40322;SDS011;26030;51.164;17.100;2023-01-09T00:16:08;9.10;;;8.10;;
40322;SDS011;26030;51.164;17.100;2023-01-09T00:21:13;8.70;;;7.80;;
40322;SDS011;26030;51.164;17.100;2023-01-09T00:26:18;8.10;;;7.30;;
40322;SDS011;26030;51.164;17.100;2023-01-09T00:31:23;8.30;;;7.50;;
40322;SDS011;26030;51.164;17.100;2023-01-09T00:36:29;8.40;;;7.60;;
40322;SDS011;26030;51.164;17.100;2023-01-09T00:41:39;8.30;;;7.50;;
40322;SDS011;26030;51.164;17.100;2023-01-09T00:46:48;8.70;;;7.70;;
40322;SDS011;26030;51.164;17.100;2023-01-09T00:51:54;8.70;;;7.70;;
40322;SDS011;26030;51.164;17.100;2023-01-09T00:56:59;8.20;;;7.40;;
40322;SDS011;26030;51.164;17.100;2023-01-09T01:02:03;8.20;;;7.40;;
40322;SDS011;26030;51.164;17.100;2023-01-09T01:07:08;8.80;;;7.70;;
40322;SDS011;26030;51.164;17.100;2023-01-09T01:12:31;7.90;;;7.10;;
40322;SDS011;26030;51.164;17.100;2023-01-09T01:17:37;8.30;;;7.50;;
40322;SDS011;26030;51.164;17.100;2023-01-09T01:22:41;8.40;;;7.60;;
40322;SDS011;26030;51.164;17.100;2023-01-09T01:27:45;9.10;;;8.20;;
40322;SDS011;26030;51.164;17.100;2023-01-09T01:32:50;9.00;;;8.10;;
40322;SDS011;26030;51.164;17.100;2023-01-09T01:37:54;8.80;;;7.90;;
40322;SDS011;26030;51.164;17.100;2023-01-09T01:42:59;9.20;;;7.90;;
40322;SDS011;26030;51.164;17.100;2023-01-09T01:48:13;8.80;;;7.90;;
40322;SDS011;26030;51.164;17.100;2023-01-09T01:53:23;8.60;;;7.70;;
40322;SDS011;26030;51.164;17.100;2023-01-09T01:58:28;9.30;;;8.30;;
40322;SDS011;26030;51.164;17.100;2023-01-09T02:03:33;8.60;;;7.70;;
40322;SDS011;26030;51.164;17.100;2023-01-09T02:08:38;9.20;;;8.30;;
40322;SDS011;26030;51.164;17.100;2023-01-09T02:13:42;9.70;;;8.50;;
40322;SDS011;26030;51.164;17.100;2023-01-09T02:24:30;8.20;;;7.50;;
40322;SDS011;26030;51.164;17.100;2023-01-09T02:35:30;9.80;;;8.00;;
40322;SDS011;26030;51.164;17.100;2023-01-09T02:40:46;9.30;;;8.10;;
40322;SDS011;26030;51.164;17.100;2023-01-09T02:45:51;8.40;;;7.40;;
40322;SDS011;26030;51.164;17.100;2023-01-09T02:56:55;9.00;;;8.10;;
40322;SDS011;26030;51.164;17.100;2023-01-09T03:02:13;8.80;;;7.90;;
40322;SDS011;26030;51.164;17.100;2023-01-09T03:07:34;9.30;;;8.40;;
40322;SDS011;26030;51.164;17.100;2023-01-09T03:12:41;9.40;;;8.40;;
40322;SDS011;26030;51.164;17.100;2023-01-09T03:17:48;9.40;;;8.40;;
40322;SDS011;26030;51.164;17.100;2023-01-09T03:22:55;9.30;;;8.10;;
40322;SDS011;26030;51.164;17.100;2023-01-09T03:28:02;9.50;;;8.60;;
40322;SDS011;26030;51.164;17.100;2023-01-09T03:33:07;8.60;;;7.70;;
40322;SDS011;26030;51.164;17.100;2023-01-09T03:38:11;8.80;;;7.90;;
40322;SDS011;26030;51.164;17.100;2023-01-09T03:43:16;9.20;;;8.30;;
40322;SDS011;26030;51.164;17.100;2023-01-09T03:48:20;9.10;;;8.20;;
40322;SDS011;26030;51.164;17.100;2023-01-09T03:53:26;9.20;;;8.30;;
40322;SDS011;26030;51.164;17.100;2023-01-09T03:58:30;8.80;;;7.90;;
40322;SDS011;26030;51.164;17.100;2023-01-09T04:03:35;8.20;;;7.40;;
40322;SDS011;26030;51.164;17.100;2023-01-09T04:08:39;8.80;;;8.00;;
40322;SDS011;26030;51.164;17.100;2023-01-09T04:13:44;8.70;;;7.50;;
40322;SDS011;26030;51.164;17.100;2023-01-09T04:18:48;9.40;;;8.40;;
40322;SDS011;26030;51.164;17.100;2023-01-09T04:23:52;8.20;;;7.40;;
40322;SDS011;26030;51.164;17.100;2023-01-09T04:28:56;8.80;;;7.90;;
40322;SDS011;26030;51.164;17.100;2023-01-09T04:34:01;8.30;;;7.50;;
40322;SDS011;26030;51.164;17.100;2023-01-09T04:39:05;9.60;;;8.20;;
40322;SDS011;26030;51.164;17.100;2023-01-09T04:44:09;8.90;;;7.30;;
40322;SDS011;26030;51.164;17.100;2023-01-09T04:49:14;8.90;;;8.00;;
40322;SDS011;26030;51.164;17.100;2023-01-09T04:54:18;8.60;;;7.80;;
40322;SDS011;26030;51.164;17.100;2023-01-09T04:59:23;8.90;;;8.00;;
40322;SDS011;26030;51.164;17.100;2023-01-09T05:04:27;8.90;;;8.00;;
40322;SDS011;26030;51.164;17.100;2023-01-09T05:09:31;8.30;;;7.40;;
40322;SDS011;26030;51.164;17.100;2023-01-09T05:14:36;8.50;;;7.60;;
40322;SDS011;26030;51.164;17.100;2023-01-09T05:19:43;8.20;;;7.40;;
40322;SDS011;26030;51.164;17.100;2023-01-09T05:24:48;8.90;;;7.60;;
40322;SDS011;26030;51.164;17.100;2023-01-09T05:29:52;8.50;;;7.50;;
40322;SDS011;26030;51.164;17.100;2023-01-09T05:34:57;9.00;;;8.10;;
40322;SDS011;26030;51.164;17.100;2023-01-09T05:40:02;7.80;;;7.00;;
40322;SDS011;26030;51.164;17.100;2023-01-09T05:45:06;8.50;;;7.60;;
40322;SDS011;26030;51.164;17.100;2023-01-09T05:50:13;7.80;;;7.10;;
40322;SDS011;26030;51.164;17.100;2023-01-09T05:55:37;7.60;;;6.90;;
40322;SDS011;26030;51.164;17.100;2023-01-09T06:00:41;7.90;;;7.20;;
40322;SDS011;26030;51.164;17.100;2023-01-09T06:05:46;8.60;;;7.70;;
40322;SDS011;26030;51.164;17.100;2023-01-09T06:10:59;8.40;;;7.60;;
40322;SDS011;26030;51.164;17.100;2023-01-09T06:16:03;8.10;;;7.40;;
40322;SDS011;26030;51.164;17.100;2023-01-09T06:21:08;8.10;;;7.30;;
40322;SDS011;26030;51.164;17.100;2023-01-09T06:26:12;8.50;;;7.70;;
40322;SDS011;26030;51.164;17.100;2023-01-09T06:31:16;7.30;;;6.60;;
40322;SDS011;26030;51.164;17.100;2023-01-09T06:36:21;7.30;;;6.60;;
40322;SDS011;26030;51.164;17.100;2023-01-09T06:41:30;7.70;;;7.00;;
40322;SDS011;26030;51.164;17.100;2023-01-09T06:46:35;7.60;;;6.80;;
40322;SDS011;26030;51.164;17.100;2023-01-09T06:51:39;8.10;;;7.30;;
40322;SDS011;26030;51.164;17.100;2023-01-09T06:56:44;7.20;;;6.60;;
40322;SDS011;26030;51.164;17.100;2023-01-09T07:01:48;7.60;;;6.90;;
40322;SDS011;26030;51.164;17.100;2023-01-09T07:06:52;8.70;;;7.30;;
40322;SDS011;26030;51.164;17.100;2023-01-09T07:11:56;8.00;;;7.10;;
40322;SDS011;26030;51.164;17.100;2023-01-09T07:17:03;7.70;;;6.80;;
40322;SDS011;26030;51.164;17.100;2023-01-09T07:22:17;8.00;;;7.10;;
40322;SDS011;26030;51.164;17.100;2023-01-09T07:27:22;8.20;;;7.40;;
40322;SDS011;26030;51.164;17.100;2023-01-09T07:32:29;7.20;;;6.50;;
40322;SDS011;26030;51.164;17.100;2023-01-09T07:37:54;7.80;;;7.00;;
40322;SDS011;26030;51.164;17.100;2023-01-09T07:42:58;7.60;;;6.80;;
40322;SDS011;26030;51.164;17.100;2023-01-09T07:48:03;8.90;;;6.80;;
40322;SDS011;26030;51.164;17.100;2023-01-09T07:53:07;8.30;;;7.00;;
40322;SDS011;26030;51.164;17.100;2023-01-09T07:58:11;7.90;;;7.10;;
40322;SDS011;26030;51.164;17.100;2023-01-09T08:03:16;7.80;;;7.00;;
40322;SDS011;26030;51.164;17.100;2023-01-09T08:08:20;8.20;;;7.40;;
40322;SDS011;26030;51.164;17.100;2023-01-09T08:13:26;7.20;;;6.50;;
40322;SDS011;26030;51.164;17.100;2023-01-09T08:18:30;7.70;;;7.00;;
40322;SDS011;26030;51.164;17.100;2023-01-09T08:23:37;9.00;;;6.90;;
40322;SDS011;26030;51.164;17.100;2023-01-09T08:28:42;7.50;;;6.80;;
40322;SDS011;26030;51.164;17.100;2023-01-09T08:33:46;7.30;;;6.60;;
40322;SDS011;26030;51.164;17.100;2023-01-09T08:38:51;6.80;;;6.20;;
40322;SDS011;26030;51.164;17.100;2023-01-09T08:43:55;6.80;;;6.20;;
40322;SDS011;26030;51.164;17.100;2023-01-09T08:49:20;6.60;;;6.00;;
40322;SDS011;26030;51.164;17.100;2023-01-09T08:54:25;7.50;;;6.70;;
40322;SDS011;26030;51.164;17.100;2023-01-09T08:59:29;7.70;;;6.90;;
40322;SDS011;26030;51.164;17.100;2023-01-09T09:04:33;7.60;;;6.90;;
40322;SDS011;26030;51.164;17.100;2023-01-09T09:09:38;7.10;;;6.50;;
40322;SDS011;26030;51.164;17.100;2023-01-09T09:14:42;7.20;;;6.60;;
40322;SDS011;26030;51.164;17.100;2023-01-09T09:20:06;6.90;;;6.30;;
40322;SDS011;26030;51.164;17.100;2023-01-09T09:25:11;8.00;;;7.30;;
40322;SDS011;26030;51.164;17.100;2023-01-09T09:30:17;7.50;;;6.80;;
40322;SDS011;26030;51.164;17.100;2023-01-09T09:35:22;6.60;;;6.00;;
40322;SDS011;26030;51.164;17.100;2023-01-09T09:45:56;6.40;;;5.90;;
40322;SDS011;26030;51.164;17.100;2023-01-09T09:56:36;6.80;;;6.20;;
40322;SDS011;26030;51.164;17.100;2023-01-09T10:02:13;6.80;;;6.20;;
40322;SDS011;26030;51.164;17.100;2023-01-09T10:07:38;7.70;;;6.90;;
40322;SDS011;26030;51.164;17.100;2023-01-09T10:12:58;7.00;;;6.40;;
40322;SDS011;26030;51.164;17.100;2023-01-09T10:18:32;6.90;;;6.20;;
40322;SDS011;26030;51.164;17.100;2023-01-09T10:23:50;7.40;;;6.70;;
40322;SDS011;26030;51.164;17.100;2023-01-09T10:29:21;8.00;;;7.00;;
40322;SDS011;26030;51.164;17.100;2023-01-09T10:34:47;6.70;;;6.10;;
40322;SDS011;26030;51.164;17.100;2023-01-09T10:39:58;7.90;;;6.10;;
40322;SDS011;26030;51.164;17.100;2023-01-09T10:45:19;7.50;;;6.80;;
40322;SDS011;26030;51.164;17.100;2023-01-09T10:50:28;7.10;;;6.50;;
40322;SDS011;26030;51.164;17.100;2023-01-09T10:55:45;7.10;;;6.40;;
40322;SDS011;26030;51.164;17.100;2023-01-09T11:00:52;7.40;;;6.70;;
40322;SDS011;26030;51.164;17.100;2023-01-09T11:05:58;6.90;;;6.20;;
40322;SDS011;26030;51.164;17.100;2023-01-09T11:11:03;7.10;;;6.50;;
40322;SDS011;26030;51.164;17.100;2023-01-09T11:26:31;6.60;;;6.00;;
40322;SDS011;26030;51.164;17.100;2023-01-09T11:31:39;7.40;;;6.70;;
40322;SDS011;26030;51.164;17.100;2023-01-09T11:36:45;6.70;;;6.10;;
40322;SDS011;26030;51.164;17.100;2023-01-09T11:42:22;7.20;;;6.50;;
40322;SDS011;26030;51.164;17.100;2023-01-09T11:47:45;6.40;;;5.90;;
40322;SDS011;26030;51.164;17.100;2023-01-09T11:58:19;6.20;;;5.80;;
40322;SDS011;26030;51.164;17.100;2023-01-09T12:09:12;6.50;;;6.00;;
40322;SDS011;26030;51.164;17.100;2023-01-09T12:25:37;6.50;;;5.90;;
40322;SDS011;26030;51.164;17.100;2023-01-09T12:52:11;7.00;;;6.30;;
40322;SDS011;26030;51.164;17.100;2023-01-09T12:57:29;6.50;;;5.90;;
40322;SDS011;26030;51.164;17.100;2023-01-09T13:02:36;6.20;;;5.70;;
40322;SDS011;26030;51.164;17.100;2023-01-09T13:08:07;6.80;;;6.20;;
40322;SDS011;26030;51.164;17.100;2023-01-09T13:13:37;6.30;;;5.70;;
40322;SDS011;26030;51.164;17.100;2023-01-09T13:18:57;7.00;;;6.30;;
40322;SDS011;26030;51.164;17.100;2023-01-09T13:29:25;7.20;;;6.50;;
40322;SDS011;26030;51.164;17.100;2023-01-09T13:34:33;6.50;;;5.90;;
40322;SDS011;26030;51.164;17.100;2023-01-09T13:39:41;6.10;;;5.50;;
40322;SDS011;26030;51.164;17.100;2023-01-09T13:44:52;6.80;;;6.20;;
40322;SDS011;26030;51.164;17.100;2023-01-09T13:50:00;6.80;;;6.20;;
40322;SDS011;26030;51.164;17.100;2023-01-09T14:10:51;6.00;;;5.50;;
40322;SDS011;26030;51.164;17.100;2023-01-09T14:16:17;6.50;;;5.90;;
40322;SDS011;26030;51.164;17.100;2023-01-09T14:21:23;6.10;;;5.50;;
40322;SDS011;26030;51.164;17.100;2023-01-09T14:26:50;6.00;;;5.40;;
40322;SDS011;26030;51.164;17.100;2023-01-09T14:37:27;6.30;;;5.70;;
40322;SDS011;26030;51.164;17.100;2023-01-09T14:42:34;5.80;;;5.30;;
40322;SDS011;26030;51.164;17.100;2023-01-09T14:47:52;6.20;;;5.70;;
40322;SDS011;26030;51.164;17.100;2023-01-09T14:58:27;6.20;;;5.60;;
40322;SDS011;26030;51.164;17.100;2023-01-09T15:03:41;5.60;;;5.10;;
40322;SDS011;26030;51.164;17.100;2023-01-09T15:19:36;5.40;;;4.90;;
40322;SDS011;26030;51.164;17.100;2023-01-09T15:24:41;5.90;;;5.40;;
40322;SDS011;26030;51.164;17.100;2023-01-09T15:29:45;5.70;;;5.30;;
40322;SDS011;26030;51.164;17.100;2023-01-09T15:34:49;5.80;;;5.30;;
40322;SDS011;26030;51.164;17.100;2023-01-09T15:39:55;6.30;;;5.70;;
40322;SDS011;26030;51.164;17.100;2023-01-09T15:45:00;5.70;;;5.30;;
40322;SDS011;26030;51.164;17.100;2023-01-09T15:50:05;5.70;;;5.20;;
40322;SDS011;26030;51.164;17.100;2023-01-09T15:55:35;5.80;;;5.30;;
40322;SDS011;26030;51.164;17.100;2023-01-09T16:00:41;5.60;;;5.10;;
40322;SDS011;26030;51.164;17.100;2023-01-09T16:10:58;5.90;;;5.30;;
40322;SDS011;26030;51.164;17.100;2023-01-09T16:16:04;5.50;;;5.00;;
40322;SDS011;26030;51.164;17.100;2023-01-09T16:21:41;5.30;;;4.90;;
40322;SDS011;26030;51.164;17.100;2023-01-09T16:26:46;5.20;;;4.70;;
40322;SDS011;26030;51.164;17.100;2023-01-09T16:31:57;5.50;;;5.00;;
40322;SDS011;26030;51.164;17.100;2023-01-09T16:37:03;5.20;;;4.70;;
40322;SDS011;26030;51.164;17.100;2023-01-09T16:42:08;5.70;;;5.20;;
40322;SDS011;26030;51.164;17.100;2023-01-09T16:47:31;5.40;;;4.90;;
40322;SDS011;26030;51.164;17.100;2023-01-09T16:52:35;5.10;;;4.70;;
40322;SDS011;26030;51.164;17.100;2023-01-09T16:57:40;5.00;;;4.60;;
40322;SDS011;26030;51.164;17.100;2023-01-09T17:02:44;4.70;;;4.30;;
40322;SDS011;26030;51.164;17.100;2023-01-09T17:07:49;5.00;;;4.60;;
40322;SDS011;26030;51.164;17.100;2023-01-09T17:12:53;5.50;;;5.10;;
40322;SDS011;26030;51.164;17.100;2023-01-09T17:17:58;5.20;;;4.80;;
40322;SDS011;26030;51.164;17.100;2023-01-09T17:23:03;4.90;;;4.50;;
40322;SDS011;26030;51.164;17.100;2023-01-09T17:28:16;5.10;;;4.60;;
40322;SDS011;26030;51.164;17.100;2023-01-09T17:33:37;5.20;;;4.80;;
40322;SDS011;26030;51.164;17.100;2023-01-09T17:38:42;4.90;;;4.40;;
40322;SDS011;26030;51.164;17.100;2023-01-09T17:43:46;5.30;;;4.90;;
40322;SDS011;26030;51.164;17.100;2023-01-09T17:48:50;4.70;;;4.30;;
40322;SDS011;26030;51.164;17.100;2023-01-09T17:53:56;5.00;;;4.60;;
40322;SDS011;26030;51.164;17.100;2023-01-09T17:59:00;4.50;;;4.10;;
40322;SDS011;26030;51.164;17.100;2023-01-09T18:04:05;5.10;;;4.60;;
40322;SDS011;26030;51.164;17.100;2023-01-09T18:09:13;4.50;;;4.20;;
40322;SDS011;26030;51.164;17.100;2023-01-09T18:14:18;4.70;;;4.30;;
40322;SDS011;26030;51.164;17.100;2023-01-09T18:19:23;5.00;;;4.60;;
40322;SDS011;26030;51.164;17.100;2023-01-09T18:24:27;5.20;;;4.80;;
40322;SDS011;26030;51.164;17.100;2023-01-09T18:29:32;5.30;;;4.80;;
40322;SDS011;26030;51.164;17.100;2023-01-09T18:34:37;4.50;;;4.10;;
40322;SDS011;26030;51.164;17.100;2023-01-09T18:39:42;4.70;;;4.20;;
40322;SDS011;26030;51.164;17.100;2023-01-09T18:44:47;4.70;;;4.30;;
40322;SDS011;26030;51.164;17.100;2023-01-09T18:49:51;4.40;;;4.00;;
40322;SDS011;26030;51.164;17.100;2023-01-09T18:54:56;4.50;;;4.10;;
40322;SDS011;26030;51.164;17.100;2023-01-09T19:00:03;4.80;;;4.40;;
40322;SDS011;26030;51.164;17.100;2023-01-09T19:05:09;4.70;;;4.30;;
40322;SDS011;26030;51.164;17.100;2023-01-09T19:10:14;4.40;;;4.00;;
40322;SDS011;26030;51.164;17.100;2023-01-09T19:15:21;4.60;;;4.20;;
40322;SDS011;26030;51.164;17.100;2023-01-09T19:20:26;4.60;;;4.20;;
40322;SDS011;26030;51.164;17.100;2023-01-09T19:25:31;4.40;;;4.00;;
40322;SDS011;26030;51.164;17.100;2023-01-09T19:30:36;4.90;;;4.50;;
40322;SDS011;26030;51.164;17.100;2023-01-09T19:35:47;4.30;;;3.90;;
40322;SDS011;26030;51.164;17.100;2023-01-09T19:40:53;4.20;;;3.80;;
40322;SDS011;26030;51.164;17.100;2023-01-09T19:45:57;4.60;;;4.20;;
40322;SDS011;26030;51.164;17.100;2023-01-09T19:51:03;4.30;;;4.00;;
40322;SDS011;26030;51.164;17.100;2023-01-09T20:01:25;4.90;;;4.50;;
40322;SDS011;26030;51.164;17.100;2023-01-09T20:06:33;4.60;;;4.20;;
40322;SDS011;26030;51.164;17.100;2023-01-09T20:11:38;4.00;;;3.70;;
40322;SDS011;26030;51.164;17.100;2023-01-09T20:16:45;4.40;;;4.00;;
40322;SDS011;26030;51.164;17.100;2023-01-09T20:21:53;4.00;;;3.60;;
40322;SDS011;26030;51.164;17.100;2023-01-09T20:26:57;4.30;;;3.90;;
40322;SDS011;26030;51.164;17.100;2023-01-09T20:32:04;4.10;;;3.80;;
40322;SDS011;26030;51.164;17.100;2023-01-09T20:37:11;4.10;;;3.80;;
40322;SDS011;26030;51.164;17.100;2023-01-09T20:42:16;4.20;;;3.90;;
40322;SDS011;26030;51.164;17.100;2023-01-09T20:47:22;4.40;;;4.00;;
40322;SDS011;26030;51.164;17.100;2023-01-09T20:52:27;4.60;;;4.20;;
40322;SDS011;26030;51.164;17.100;2023-01-09T20:57:31;4.40;;;4.00;;
40322;SDS011;26030;51.164;17.100;2023-01-09T21:02:36;4.00;;;3.70;;
40322;SDS011;26030;51.164;17.100;2023-01-09T21:07:40;4.70;;;4.30;;
40322;SDS011;26030;51.164;17.100;2023-01-09T21:12:44;4.30;;;3.90;;
40322;SDS011;26030;51.164;17.100;2023-01-09T21:17:49;4.70;;;4.30;;
40322;SDS011;26030;51.164;17.100;2023-01-09T21:22:53;4.60;;;4.20;;
40322;SDS011;26030;51.164;17.100;2023-01-09T21:28:01;4.60;;;4.10;;
40322;SDS011;26030;51.164;17.100;2023-01-09T21:33:06;4.60;;;4.20;;
40322;SDS011;26030;51.164;17.100;2023-01-09T21:38:10;4.50;;;4.10;;
40322;SDS011;26030;51.164;17.100;2023-01-09T21:43:25;4.90;;;4.50;;
40322;SDS011;26030;51.164;17.100;2023-01-09T21:48:49;3.90;;;3.60;;
40322;SDS011;26030;51.164;17.100;2023-01-09T21:53:53;5.10;;;4.60;;
40322;SDS011;26030;51.164;17.100;2023-01-09T21:58:57;5.40;;;4.90;;
40322;SDS011;26030;51.164;17.100;2023-01-09T22:04:02;4.90;;;4.40;;
40322;SDS011;26030;51.164;17.100;2023-01-09T22:09:06;5.10;;;4.60;;
40322;SDS011;26030;51.164;17.100;2023-01-09T22:14:12;5.30;;;4.80;;
40322;SDS011;26030;51.164;17.100;2023-01-09T22:19:17;4.90;;;4.50;;
40322;SDS011;26030;51.164;17.100;2023-01-09T22:24:21;5.40;;;4.90;;
40322;SDS011;26030;51.164;17.100;2023-01-09T22:29:26;6.20;;;5.60;;
40322;SDS011;26030;51.164;17.100;2023-01-09T22:34:30;5.00;;;4.60;;
40322;SDS011;26030;51.164;17.100;2023-01-09T22:39:35;5.80;;;5.30;;
40322;SDS011;26030;51.164;17.100;2023-01-09T22:44:39;5.70;;;5.20;;
40322;SDS011;26030;51.164;17.100;2023-01-09T22:49:43;6.50;;;5.70;;
40322;SDS011;26030;51.164;17.100;2023-01-09T22:54:55;5.60;;;5.10;;
40322;SDS011;26030;51.164;17.100;2023-01-09T23:00:00;6.60;;;5.50;;
40322;SDS011;26030;51.164;17.100;2023-01-09T23:05:04;8.10;;;6.80;;
40322;SDS011;26030;51.164;17.100;2023-01-09T23:10:09;6.20;;;5.60;;
40322;SDS011;26030;51.164;17.100;2023-01-09T23:15:14;6.10;;;5.50;;
40322;SDS011;26030;51.164;17.100;2023-01-09T23:20:18;6.00;;;5.40;;
40322;SDS011;26030;51.164;17.100;2023-01-09T23:25:23;5.60;;;5.10;;
40322;SDS011;26030;51.164;17.100;2023-01-09T23:30:27;6.30;;;5.70;;
40322;SDS011;26030;51.164;17.100;2023-01-09T23:35:31;5.80;;;5.30;;
40322;SDS011;26030;51.164;17.100;2023-01-09T23:40:37;5.70;;;5.20;;
40322;SDS011;26030;51.164;17.100;2023-01-09T23:45:43;5.80;;;5.30;;
40322;SDS011;26030;51.164;17.100;2023-01-09T23:50:49;6.40;;;5.20;;
40322;SDS011;26030;51.164;17.100;2023-01-09T23:55:54;6.30;;;5.70;;
